Terminal Aerodrome Forecast
Issued by NWS

Home | Current Version | Previous Version | Text Only | Print | Product List | Glossary On
Versions: 1 2 3 4 5 6 7 8 9 10 11 12 13 14 15 16 17 18 19 20 21 22
000
FTUS43 KPAH 061731
TAFCGI
TAF
KCGI 061731Z 0618/0718 22009G15KT P6SM BKN040
      TEMPO 0618/0621 BKN018
     FM070000 20008KT P6SM BKN250
     FM070900 22009KT 6SM BR OVC050 PROB30 0709/0714 5SM -TSRA
      BKN050CB=

USA.gov is the U.S. government's official web portal to all federal, state and local government web resources and services.